createdAt,value
2023-05-01T18:00:23.114Z,1.00
2023-05-01T18:02:50.028Z,1.00
2023-05-01T18:05:16.802Z,1.00
2023-05-01T18:07:43.609Z,1.00
2023-05-01T18:10:10.826Z,1.00
2023-05-01T18:12:37.585Z,1.00
2023-05-01T18:15:04.426Z,1.00
2023-05-01T18:17:31.244Z,1.00
2023-05-01T18:19:58.122Z,1.00
2023-05-01T18:22:25.054Z,1.00
2023-05-01T18:24:51.844Z,1.00
2023-05-01T18:27:18.960Z,1.00
2023-05-01T18:29:45.697Z,1.00
2023-05-01T18:32:13.793Z,1.00
2023-05-01T18:34:40.998Z,1.00
2023-05-01T18:37:07.796Z,1.00
2023-05-01T18:39:34.519Z,1.00
2023-05-01T18:42:01.544Z,1.00
2023-05-01T18:44:28.360Z,1.00
2023-05-01T18:46:55.131Z,1.00
2023-05-01T18:49:24.067Z,1.00
2023-05-01T18:51:51.462Z,1.00
2023-05-01T18:54:18.274Z,1.00
2023-05-01T18:56:45.321Z,1.00
2023-05-01T18:59:12.138Z,1.00
2023-05-01T19:01:39.096Z,1.00
2023-05-01T19:04:06.737Z,1.00
2023-05-01T19:06:33.813Z,1.00
2023-05-01T19:09:01.716Z,1.00
2023-05-01T19:11:31.882Z,1.00
2023-05-01T19:13:58.880Z,1.00
2023-05-01T19:16:28.261Z,1.00
2023-05-01T19:18:55.060Z,1.00
2023-05-01T19:21:21.959Z,1.00
2023-05-01T19:23:49.728Z,1.00
2023-05-01T19:26:17.326Z,1.00
2023-05-01T19:28:44.548Z,1.00
2023-05-01T19:31:12.415Z,1.00
2023-05-01T19:33:41.239Z,1.00
2023-05-01T19:36:07.988Z,1.00
2023-05-01T19:38:34.788Z,1.00
2023-05-01T19:41:01.631Z,1.00
2023-05-01T19:43:28.395Z,1.00
2023-05-01T19:45:55.253Z,1.00
2023-05-01T19:48:22.434Z,1.00
2023-05-01T19:50:51.865Z,1.00
2023-05-01T19:53:18.659Z,1.00
2023-05-01T19:55:47.712Z,1.00
2023-05-01T19:58:15.201Z,1.00
2023-05-01T20:00:41.996Z,1.00
2023-05-01T20:03:10.617Z,2.30
2023-05-01T20:05:37.609Z,1.00
2023-05-01T20:08:05.098Z,1.30
2023-05-01T20:10:32.002Z,5.40
2023-05-01T20:12:59.036Z,10.70
2023-05-01T20:15:25.953Z,16.90
2023-05-01T20:17:52.889Z,24.00
2023-05-01T20:20:19.989Z,34.50
2023-05-01T20:22:46.940Z,43.70
2023-05-01T20:25:13.876Z,59.20
2023-05-01T20:27:41.419Z,77.80
2023-05-01T20:30:10.679Z,85.60
2023-05-01T20:32:42.465Z,95.30
2023-05-01T20:35:12.181Z,99.90
2023-05-01T20:37:39.066Z,99.90
2023-05-01T20:40:06.444Z,99.90
2023-05-01T20:42:33.206Z,99.90
2023-05-01T20:45:00.063Z,99.90
2023-05-01T20:47:26.894Z,99.90
2023-05-01T20:49:54.083Z,99.90
2023-05-01T20:52:20.927Z,99.90
2023-05-01T20:54:47.732Z,99.90
2023-05-01T20:57:16.497Z,99.90
2023-05-01T20:59:49.842Z,99.90
2023-05-01T21:02:17.106Z,99.90
2023-05-01T21:04:44.061Z,99.90
2023-05-01T21:07:10.881Z,99.90
2023-05-01T21:09:37.969Z,99.90
2023-05-01T21:12:06.818Z,99.90
2023-05-01T21:14:33.705Z,99.90
2023-05-01T21:17:00.655Z,99.90
2023-05-01T21:19:27.970Z,99.90
2023-05-01T21:21:55.324Z,99.90
2023-05-01T21:24:25.788Z,99.90
2023-05-01T21:26:55.777Z,99.90
2023-05-01T21:29:22.550Z,99.90
2023-05-01T21:31:49.368Z,99.90
2023-05-01T21:34:17.781Z,99.90
2023-05-01T21:36:49.320Z,99.90
2023-05-01T21:39:16.342Z,99.90
2023-05-01T21:41:43.224Z,99.90
2023-05-01T21:44:10.311Z,99.90
2023-05-01T21:46:37.570Z,99.90
2023-05-01T21:49:04.809Z,99.90
2023-05-01T21:51:33.082Z,99.90
2023-05-01T21:54:01.503Z,99.90
2023-05-01T21:56:28.634Z,99.90
2023-05-01T21:59:00.860Z,99.90
2023-05-01T22:01:28.219Z,99.90
2023-05-01T22:03:55.352Z,99.90
2023-05-01T22:06:24.449Z,99.90
2023-05-01T22:08:52.028Z,99.90
2023-05-01T22:11:20.076Z,99.90
2023-05-01T22:13:46.959Z,99.90
2023-05-01T22:16:14.173Z,99.90
2023-05-01T22:18:41.158Z,91.80
2023-05-01T22:21:08.043Z,91.50
2023-05-01T22:23:34.858Z,94.70
2023-05-01T22:26:01.652Z,99.10
2023-05-01T22:28:29.142Z,99.90
2023-05-01T22:30:55.966Z,99.90
2023-05-01T22:33:22.934Z,99.90
2023-05-01T22:35:49.732Z,99.90
2023-05-01T22:38:16.651Z,99.90
2023-05-01T22:40:43.473Z,99.90
2023-05-01T22:43:10.509Z,99.90
2023-05-01T22:45:37.378Z,99.90
2023-05-01T22:48:04.373Z,99.90
2023-05-01T22:50:31.490Z,99.90
2023-05-01T22:52:58.286Z,99.90
2023-05-01T22:55:25.088Z,99.90
2023-05-01T22:57:51.896Z,99.90
2023-05-01T23:00:18.997Z,99.90
2023-05-01T23:02:45.871Z,99.90
2023-05-01T23:05:12.696Z,99.90
2023-05-01T23:07:39.853Z,99.90
2023-05-01T23:10:07.380Z,99.90
2023-05-01T23:12:34.291Z,99.90
2023-05-01T23:15:01.193Z,99.90
2023-05-01T23:17:30.875Z,99.90
2023-05-01T23:19:58.853Z,99.90
2023-05-01T23:22:25.993Z,99.90
2023-05-01T23:24:52.792Z,99.90
2023-05-01T23:27:20.016Z,99.90
2023-05-01T23:29:58.382Z,99.90
2023-05-01T23:32:27.041Z,99.90
2023-05-01T23:34:54.431Z,99.90
2023-05-01T23:37:21.546Z,99.90
2023-05-01T23:39:48.626Z,99.90
2023-05-01T23:42:15.417Z,99.90
2023-05-01T23:44:42.568Z,99.90
2023-05-01T23:47:09.537Z,99.90
2023-05-01T23:49:36.555Z,99.90
2023-05-01T23:52:03.341Z,99.90
2023-05-01T23:54:30.177Z,99.90
2023-05-01T23:56:56.976Z,99.90
2023-05-01T23:59:23.747Z,99.90
